Time;durP1;ratioP1;P1;durP2;ratioP2;P2;SDS_P1;SDS_P2;PMS_P1;PMS_P2;Temp;Humidity;BMP_temperature;BMP_pressure;BME280_temperature;BME280_humidity;BME280_pressure;Samples;Min_cycle;Max_cycle;Signal;HPM_P1;HPM_P2
2021/12/10 00:00:50;;;;;;;30.95;14.13;;;;;;;2.70;99.88;99719.16;6218616;23;20043;-62
2021/12/10 00:03:40;;;;;;;30.10;13.40;;;;;;;2.61;99.58;99702.78;6214298;23;20009;-62
2021/12/10 00:06:11;;;;;;;28.42;13.73;;;;;;;2.67;99.98;99710.56;6218414;23;20257;-63
2021/12/10 00:08:38;;;;;;;26.63;13.60;;;;;;;2.70;99.13;99714.00;6217797;23;20004;-63
2021/12/10 00:11:22;;;;;;;28.65;13.80;;;;;;;2.69;99.52;99701.94;6218438;23;20345;-63
2021/12/10 00:13:48;;;;;;;30.33;13.27;;;;;;;2.76;98.85;99698.50;6218526;23;20004;-63
2021/12/10 00:16:16;;;;;;;28.65;12.88;;;;;;;2.81;98.33;99688.16;6217860;23;20098;-63
2021/12/10 00:18:48;;;;;;;21.85;12.13;;;;;;;2.78;98.51;99678.69;6218161;23;20015;-63
2021/12/10 00:21:13;;;;;;;26.00;13.02;;;;;;;2.76;98.61;99659.78;6218386;23;20005;-63
2021/12/10 00:23:39;;;;;;;24.40;11.82;;;;;;;2.85;98.16;99669.22;6218324;23;20032;-63
2021/12/10 00:26:05;;;;;;;20.98;11.43;;;;;;;2.91;97.24;99664.06;6218364;23;20008;-63
2021/12/10 00:28:39;;;;;;;20.67;10.23;;;;;;;3.05;97.81;99662.28;6219104;23;20015;-63
2021/12/10 00:34:19;;;;;;;23.33;10.52;;;;;;;2.98;97.20;99639.91;6218484;23;20008;-63
2021/12/10 00:36:46;;;;;;;16.23;8.88;;;;;;;2.94;96.40;99638.22;6218519;23;20008;-63
2021/12/10 00:39:17;;;;;;;19.98;10.43;;;;;;;2.88;97.58;99635.63;6217350;23;20351;-63
2021/12/10 00:41:42;;;;;;;21.38;9.63;;;;;;;2.91;96.94;99619.25;6218106;23;20016;-62
2021/12/10 00:44:08;;;;;;;17.75;9.50;;;;;;;2.89;96.21;99606.34;6218052;23;20087;-63
2021/12/10 00:46:34;;;;;;;22.15;10.00;;;;;;;2.84;95.80;99597.75;6218381;23;20013;-63
2021/12/10 00:48:59;;;;;;;17.33;9.05;;;;;;;2.82;96.32;99596.00;6217738;23;20318;-63
2021/12/10 00:51:25;;;;;;;15.10;8.98;;;;;;;2.74;96.22;99594.31;6217722;23;20004;-63
2021/12/10 00:53:52;;;;;;;19.10;7.18;;;;;;;2.74;95.81;99593.47;6217457;23;20042;-63
2021/12/10 00:56:17;;;;;;;16.25;8.07;;;;;;;2.76;95.97;99595.19;6218418;23;20287;-63
2021/12/10 00:58:42;;;;;;;15.60;6.60;;;;;;;2.86;95.01;99582.25;6218120;23;20008;-63
2021/12/10 01:01:14;;;;;;;12.23;7.38;;;;;;;2.74;96.30;99577.97;6217543;23;20087;-63
2021/12/10 01:03:47;;;;;;;15.60;7.68;;;;;;;2.67;97.06;99574.53;6217557;23;20390;-63
2021/12/10 01:06:16;;;;;;;15.10;7.45;;;;;;;2.58;96.74;99560.78;6217173;23;20415;-63
2021/12/10 01:08:45;;;;;;;15.18;7.78;;;;;;;2.69;95.73;99557.31;6217929;23;20013;-63
2021/12/10 01:11:30;;;;;;;20.85;7.82;;;;;;;2.57;97.32;99541.00;6217759;23;20009;-63
2021/12/10 01:14:07;;;;;;;18.60;8.13;;;;;;;2.61;96.46;99545.25;6217965;23;20038;-63
2021/12/10 01:27:31;;;;;;;17.42;7.95;;;;;;;2.49;97.57;99507.44;6227944;23;20083;-63
2021/12/10 01:30:18;;;;;;;17.63;7.68;;;;;;;2.49;97.54;99494.53;6217413;23;20039;-63
2021/12/10 01:32:50;;;;;;;20.42;8.23;;;;;;;2.47;97.34;99497.97;6216745;23;20019;-62
2021/12/10 01:35:21;;;;;;;17.38;7.43;;;;;;;2.40;97.64;99473.91;6217689;23;20019;-64
2021/12/10 01:37:53;;;;;;;14.70;6.88;;;;;;;2.32;97.89;99460.16;6217902;23;20040;-63
2021/12/10 01:40:22;;;;;;;15.98;6.70;;;;;;;2.45;97.41;99472.16;6218392;23;20036;-63
2021/12/10 01:42:52;;;;;;;21.63;7.32;;;;;;;2.31;97.68;99446.38;6217890;23;20037;-63
2021/12/10 01:45:25;;;;;;;12.75;6.40;;;;;;;2.42;97.38;99460.09;6217141;23;20011;-63
2021/12/10 01:48:03;;;;;;;13.48;6.53;;;;;;;2.50;97.06;99461.81;6217492;23;20005;-63
2021/12/10 01:50:33;;;;;;;14.45;6.22;;;;;;;2.45;97.03;99454.94;6218038;23;20005;-63
2021/12/10 01:53:03;;;;;;;13.95;6.53;;;;;;;2.44;97.37;99453.22;6217692;23;20079;-63
2021/12/10 01:55:30;;;;;;;14.57;6.82;;;;;;;2.48;96.74;99448.06;6217579;23;20060;-63
2021/12/10 01:57:57;;;;;;;14.32;6.65;;;;;;;2.42;96.99;99444.63;6217800;23;20012;-63
2021/12/10 02:00:32;;;;;;;14.57;6.50;;;;;;;2.45;97.13;99443.75;6217985;23;20015;-63
2021/12/10 02:02:58;;;;;;;15.32;6.47;;;;;;;2.40;97.16;99442.94;6218074;23;20012;-63
2021/12/10 02:05:24;;;;;;;14.80;6.60;;;;;;;2.43;97.19;99438.59;6217365;23;20417;-63
2021/12/10 02:07:49;;;;;;;17.42;6.40;;;;;;;2.42;96.80;99426.53;6217489;23;20004;-63
2021/12/10 02:10:17;;;;;;;16.45;6.18;;;;;;;2.52;97.01;99416.19;6217217;23;20347;-62
2021/12/10 02:12:45;;;;;;;14.02;5.72;;;;;;;2.44;97.10;99421.38;6217211;23;20301;-63
2021/12/10 02:15:12;;;;;;;12.98;5.80;;;;;;;2.45;96.65;99417.94;6216695;23;20016;-63
2021/12/10 02:17:41;;;;;;;16.23;6.00;;;;;;;2.48;96.78;99415.34;6217495;23;20005;-63
2021/12/10 02:20:11;;;;;;;14.18;5.75;;;;;;;2.46;96.65;99404.16;6217701;23;20267;-63
2021/12/10 02:22:38;;;;;;;16.27;6.20;;;;;;;2.44;97.04;99401.59;6216771;23;20036;-63
2021/12/10 02:25:05;;;;;;;9.23;5.18;;;;;;;2.41;96.71;99393.88;6217630;23;20397;-63
2021/12/10 02:27:30;;;;;;;13.85;5.22;;;;;;;2.42;96.69;99385.25;6217328;23;20298;-63
2021/12/10 02:29:55;;;;;;;16.60;5.00;;;;;;;2.44;96.25;99373.19;6217343;23;20015;-63
2021/12/10 02:32:22;;;;;;;8.73;4.57;;;;;;;2.44;95.95;99360.28;6217215;23;20016;-63
2021/12/10 02:34:49;;;;;;;11.25;4.82;;;;;;;2.42;95.93;99354.25;6217478;23;20024;-63
2021/12/10 02:37:15;;;;;;;11.35;4.60;;;;;;;2.46;96.28;99352.53;6217280;23;20011;-63
2021/12/10 02:39:40;;;;;;;8.65;4.07;;;;;;;2.51;95.59;99352.53;6217585;23;20088;-63
2021/12/10 02:42:05;;;;;;;12.43;4.20;;;;;;;2.56;95.23;99338.72;6219095;23;20001;-63
2021/12/10 02:44:32;;;;;;;11.00;4.47;;;;;;;2.55;94.94;99347.34;6219154;23;20032;-63
2021/12/10 02:46:59;;;;;;;12.30;4.18;;;;;;;2.50;95.44;99337.88;6219128;23;20075;-63
2021/12/10 02:49:27;;;;;;;11.80;3.92;;;;;;;2.46;95.43;99324.13;6219225;23;20004;-63
2021/12/10 02:51:53;;;;;;;13.70;3.90;;;;;;;2.53;94.87;99327.56;6219204;23;20022;-63
2021/12/10 02:54:23;;;;;;;13.13;3.90;;;;;;;2.58;94.77;99326.66;6219215;23;20382;-63
2021/12/10 02:56:51;;;;;;;7.65;3.28;;;;;;;2.60;94.20;99334.41;6218880;23;20078;-63
2021/12/10 02:59:17;;;;;;;7.82;3.58;;;;;;;2.64;94.00;99323.16;6219084;23;20023;-63
2021/12/10 03:01:46;;;;;;;8.80;3.15;;;;;;;2.65;94.16;99319.72;6219079;23;20009;-63
2021/12/10 03:04:12;;;;;;;10.20;3.90;;;;;;;2.57;94.38;99298.28;6219128;23;20019;-63
2021/12/10 03:06:44;;;;;;;8.63;3.30;;;;;;;2.68;93.84;99304.22;6218825;23;20008;-63
2021/12/10 03:09:10;;;;;;;9.07;3.60;;;;;;;2.66;94.16;99309.38;6218593;23;20405;-64
2021/12/10 03:11:37;;;;;;;9.85;3.35;;;;;;;2.65;93.80;99297.34;6218779;23;20004;-63
2021/12/10 03:14:10;;;;;;;13.98;3.35;;;;;;;2.61;93.98;99294.78;6218867;23;20386;-63
2021/12/10 03:16:41;;;;;;;10.55;3.67;;;;;;;2.67;93.36;99284.44;6218808;23;20015;-62
2021/12/10 03:19:07;;;;;;;8.68;3.30;;;;;;;2.74;93.19;99286.97;6219052;23;20358;-63
2021/12/10 03:21:37;;;;;;;7.40;3.40;;;;;;;2.72;93.25;99275.78;6218649;23;20084;-62
2021/12/10 03:24:03;;;;;;;10.05;3.88;;;;;;;2.68;93.05;99278.41;6218704;23;20004;-63
2021/12/10 03:26:30;;;;;;;9.73;3.40;;;;;;;2.70;93.39;99282.69;6219414;23;20016;-63
2021/12/10 03:28:55;;;;;;;11.23;3.42;;;;;;;2.67;93.32;99267.22;6219039;23;20039;-63
2021/12/10 03:31:23;;;;;;;9.75;3.10;;;;;;;2.65;93.32;99274.09;6218826;23;20005;-63
2021/12/10 03:33:50;;;;;;;9.05;3.47;;;;;;;2.65;93.35;99266.34;6218875;23;20004;-63
2021/12/10 03:36:15;;;;;;;9.20;3.15;;;;;;;2.65;93.01;99257.75;6218809;23;20009;-64
2021/12/10 03:38:41;;;;;;;11.13;3.50;;;;;;;2.66;93.44;99260.31;6218616;23;20019;-63
2021/12/10 03:41:10;;;;;;;12.98;3.67;;;;;;;2.69;93.56;99243.94;6218170;23;20317;-63
2021/12/10 03:43:36;;;;;;;14.93;3.80;;;;;;;2.68;93.92;99250.00;6218652;23;20008;-63
2021/12/10 03:46:03;;;;;;;8.10;3.20;;;;;;;2.70;92.96;99245.66;6217829;23;20012;-63
2021/12/10 03:48:34;;;;;;;15.18;3.25;;;;;;;2.68;93.29;99222.44;6218298;23;20008;-63
2021/12/10 03:51:04;;;;;;;12.30;3.30;;;;;;;2.80;92.79;99244.72;6218138;23;20465;-64
2021/12/10 03:53:29;;;;;;;10.00;3.50;;;;;;;2.78;92.43;99238.69;6218681;23;20015;-63
2021/12/10 03:56:08;;;;;;;9.15;3.22;;;;;;;2.77;93.37;99227.50;6219357;23;20279;-63
2021/12/10 03:58:33;;;;;;;11.88;3.40;;;;;;;2.77;92.75;99232.69;6218632;23;20063;-63
2021/12/10 04:01:00;;;;;;;10.57;3.72;;;;;;;2.78;92.89;99236.13;6218779;23;20005;-63
2021/12/10 04:03:27;;;;;;;9.80;3.42;;;;;;;2.83;92.36;99228.34;6218450;23;20079;-63
2021/12/10 04:05:53;;;;;;;9.52;3.78;;;;;;;2.76;92.63;99214.63;6218439;23;20009;-63
2021/12/10 04:08:19;;;;;;;9.65;3.88;;;;;;;2.85;92.56;99204.22;6218462;23;20009;-63
2021/12/10 04:10:46;;;;;;;11.07;3.85;;;;;;;2.76;92.85;99197.41;6218469;23;20356;-63
2021/12/10 04:13:12;;;;;;;10.90;3.78;;;;;;;2.75;93.03;99203.44;6218444;23;20004;-63
2021/12/10 04:15:39;;;;;;;9.10;3.60;;;;;;;2.78;92.81;99197.38;6218463;23;20008;-63
2021/12/10 04:18:08;;;;;;;10.13;4.10;;;;;;;2.73;93.69;99188.84;6218252;23;20082;-63
2021/12/10 04:20:34;;;;;;;9.73;3.80;;;;;;;2.75;93.47;99184.50;6218172;23;20084;-63
2021/12/10 04:23:06;;;;;;;8.15;3.92;;;;;;;2.70;93.81;99166.47;6218072;23;20004;-63
2021/12/10 04:25:32;;;;;;;10.13;3.88;;;;;;;2.72;93.97;99175.06;6218351;23;20016;-63
2021/12/10 04:28:07;;;;;;;10.65;3.88;;;;;;;2.78;93.50;99161.22;6218301;23;20008;-63
2021/12/10 04:30:37;;;;;;;10.05;3.88;;;;;;;2.72;93.20;99157.00;6218106;23;20035;-63
2021/12/10 04:33:04;;;;;;;8.20;3.47;;;;;;;2.69;93.69;99153.56;6218114;23;20015;-63
2021/12/10 04:35:29;;;;;;;10.07;3.47;;;;;;;2.70;94.25;99144.94;6218560;23;20016;-63
2021/12/10 04:37:54;;;;;;;9.18;3.63;;;;;;;2.74;93.82;99144.91;6218696;23;20004;-63
2021/12/10 04:40:21;;;;;;;8.93;3.40;;;;;;;2.72;93.68;99131.16;6218383;23;20019;-62
2021/12/10 04:42:48;;;;;;;9.90;3.50;;;;;;;2.69;94.12;99123.44;6218286;23;20008;-63
2021/12/10 04:45:16;;;;;;;8.23;3.13;;;;;;;2.76;93.58;99132.84;6217362;23;20013;-63
2021/12/10 04:47:42;;;;;;;9.60;3.40;;;;;;;2.72;94.05;99120.81;6218482;23;20013;-63
2021/12/10 04:50:08;;;;;;;9.00;3.00;;;;;;;2.71;94.70;99110.50;6218903;23;20084;-63
2021/12/10 04:52:37;;;;;;;8.88;3.30;;;;;;;2.69;94.38;99105.34;6218063;23;20400;-63
2021/12/10 04:55:05;;;;;;;8.32;2.95;;;;;;;2.69;94.42;99104.50;6218203;23;20016;-63
2021/12/10 04:57:30;;;;;;;6.45;2.60;;;;;;;2.74;94.41;99097.56;6217985;23;20016;-63
2021/12/10 04:59:57;;;;;;;10.32;2.83;;;;;;;2.75;94.14;99083.78;6217849;23;20015;-63
2021/12/10 05:02:22;;;;;;;8.18;2.97;;;;;;;2.74;93.89;99080.34;6217948;23;20005;-63
2021/12/10 05:04:48;;;;;;;8.77;2.78;;;;;;;2.81;93.32;99075.97;6217511;23;20004;-63
2021/12/10 05:07:16;;;;;;;4.63;2.38;;;;;;;2.80;92.60;99072.50;6217855;23;20015;-63
2021/12/10 05:09:41;;;;;;;9.63;2.80;;;;;;;2.64;92.57;99039.13;6218092;23;20001;-63
2021/12/10 05:12:07;;;;;;;9.45;2.90;;;;;;;2.84;92.49;99068.19;6218098;23;20010;-63
2021/12/10 05:14:33;;;;;;;9.07;3.10;;;;;;;2.90;91.77;99065.53;6217725;23;20083;-63
2021/12/10 05:17:04;;;;;;;10.45;3.10;;;;;;;2.88;92.29;99063.84;6217643;23;20032;-63
2021/12/10 05:19:31;;;;;;;11.27;3.33;;;;;;;2.89;91.85;99057.81;6217451;23;20064;-63
2021/12/10 05:21:59;;;;;;;12.35;3.03;;;;;;;2.91;91.72;99064.66;6218014;23;20016;-63
2021/12/10 05:24:26;;;;;;;8.50;3.42;;;;;;;2.88;92.15;99054.38;6217807;23;20019;-63
2021/12/10 05:26:53;;;;;;;8.52;3.25;;;;;;;2.89;92.01;99045.75;6217611;23;20067;-63
2021/12/10 05:29:18;;;;;;;7.53;3.28;;;;;;;2.94;91.88;99048.28;6217708;23;20017;-63
2021/12/10 05:31:44;;;;;;;8.55;3.45;;;;;;;2.92;91.46;99045.72;6217706;23;20393;-63
2021/12/10 05:34:11;;;;;;;12.02;4.20;;;;;;;2.95;91.36;99050.81;6217574;23;20009;-63
2021/12/10 05:36:37;;;;;;;9.70;3.80;;;;;;;2.91;91.50;99041.41;6217513;23;20020;-63
2021/12/10 05:39:05;;;;;;;12.77;3.38;;;;;;;2.92;91.13;99045.72;6217580;23;20012;-63
2021/12/10 05:41:30;;;;;;;12.77;4.05;;;;;;;2.92;91.36;99044.84;6217506;23;20012;-65
2021/12/10 05:43:55;;;;;;;12.05;3.80;;;;;;;2.89;91.60;99024.22;6217208;23;20005;-63
2021/12/10 05:46:21;;;;;;;10.82;3.80;;;;;;;2.89;91.38;99025.09;6217580;23;20004;-63
2021/12/10 05:48:46;;;;;;;13.63;3.55;;;;;;;2.99;90.76;99030.97;6217678;23;20394;-61
2021/12/10 05:51:12;;;;;;;9.68;3.45;;;;;;;2.95;90.78;99029.28;6217124;23;20028;-66
2021/12/10 05:53:38;;;;;;;11.35;3.30;;;;;;;3.00;90.43;99023.22;6217233;23;20009;-66
2021/12/10 05:56:05;;;;;;;9.05;3.47;;;;;;;2.99;90.89;99021.50;6217800;23;20008;-67
2021/12/10 05:58:31;;;;;;;8.98;2.95;;;;;;;2.95;90.82;99009.50;6217195;23;20009;-66
2021/12/10 06:01:03;;;;;;;9.65;3.22;;;;;;;3.02;90.39;99020.63;6217138;23;20302;-67
2021/12/10 06:03:34;;;;;;;10.35;3.17;;;;;;;2.87;90.71;98992.38;6217539;23;20055;-66
2021/12/10 06:06:01;;;;;;;8.23;3.17;;;;;;;3.04;90.30;99019.72;6217495;23;20084;-67
2021/12/10 06:08:27;;;;;;;9.27;2.95;;;;;;;2.98;90.55;99014.63;6217118;23;20074;-67
2021/12/10 06:10:55;;;;;;;7.78;2.80;;;;;;;3.04;91.25;99021.44;6217159;23;20001;-67
2021/12/10 06:13:20;;;;;;;11.60;2.92;;;;;;;3.05;90.16;99015.41;6217360;23;20008;-67
2021/12/10 06:15:46;;;;;;;9.90;2.55;;;;;;;3.03;90.87;99018.00;6219072;23;20104;-67
2021/12/10 06:18:11;;;;;;;11.73;3.58;;;;;;;3.04;90.89;99014.56;6220987;23;20080;-67
2021/12/10 06:20:40;;;;;;;10.25;2.70;;;;;;;3.05;90.03;99012.81;6220507;23;20008;-67
2021/12/10 06:23:06;;;;;;;10.57;3.05;;;;;;;3.02;90.58;99010.28;6220734;23;20413;-67
2021/12/10 06:25:32;;;;;;;7.05;2.58;;;;;;;3.07;90.24;99013.66;6220438;23;20012;-67
2021/12/10 06:27:58;;;;;;;8.23;2.53;;;;;;;3.10;90.11;99009.31;6220833;23;20104;-67
2021/12/10 06:30:30;;;;;;;10.80;2.60;;;;;;;3.08;90.25;99010.22;6220633;23;20028;-67
2021/12/10 06:32:57;;;;;;;8.60;3.33;;;;;;;3.09;90.59;99012.78;6220770;23;20004;-67
2021/12/10 06:35:24;;;;;;;12.10;2.90;;;;;;;3.08;89.86;99011.06;6221026;23;20087;-67
2021/12/10 06:37:51;;;;;;;8.93;2.80;;;;;;;3.08;90.41;99005.03;6220405;23;20353;-68
2021/12/10 06:40:18;;;;;;;8.07;2.80;;;;;;;3.08;90.01;99007.63;6221113;23;20316;-68
2021/12/10 06:42:45;;;;;;;11.23;3.03;;;;;;;3.10;89.78;99006.75;6220918;23;20020;-68
2021/12/10 06:45:14;;;;;;;8.13;3.42;;;;;;;3.09;90.17;98994.69;6221238;23;20051;-71
2021/12/10 06:47:43;;;;;;;9.55;2.95;;;;;;;3.13;89.64;98998.06;6220839;23;20373;-59
2021/12/10 06:50:09;;;;;;;7.50;2.90;;;;;;;3.13;90.13;98998.06;6220763;23;20001;-62
2021/12/10 06:52:34;;;;;;;7.40;2.75;;;;;;;3.11;89.22;99000.69;6220421;23;20264;-63
2021/12/10 06:54:59;;;;;;;11.00;2.92;;;;;;;3.10;89.77;99003.31;6220516;23;20013;-61
2021/12/10 06:57:25;;;;;;;9.52;2.55;;;;;;;3.15;89.69;99007.50;6220513;23;20010;-61
2021/12/10 06:59:52;;;;;;;7.72;3.00;;;;;;;3.09;89.95;99012.78;6220524;23;20092;-62
2021/12/10 07:02:18;;;;;;;11.38;3.22;;;;;;;3.13;89.67;99024.75;6220664;23;20066;-62
2021/12/10 07:04:44;;;;;;;9.27;2.85;;;;;;;3.09;89.91;99015.38;6220629;23;20009;-61
2021/12/10 07:07:11;;;;;;;9.15;2.75;;;;;;;3.10;89.61;99016.22;6220748;23;20046;-61
2021/12/10 07:09:38;;;;;;;8.98;2.67;;;;;;;3.14;89.86;99020.44;6221060;23;20016;-62
2021/12/10 07:12:05;;;;;;;11.43;3.33;;;;;;;3.12;89.79;99014.44;6220502;23;20011;-61
2021/12/10 07:14:31;;;;;;;7.38;2.80;;;;;;;3.11;90.12;99008.44;6220543;23;20012;-61
2021/12/10 07:16:57;;;;;;;9.68;2.83;;;;;;;3.05;90.62;99005.06;6220744;23;20018;-61
2021/12/10 07:19:23;;;;;;;9.88;3.13;;;;;;;3.13;90.07;99017.00;6220581;23;20008;-61
2021/12/10 07:21:48;;;;;;;8.88;2.60;;;;;;;3.18;89.96;99027.28;6220357;23;20005;-62
2021/12/10 07:24:17;;;;;;;9.18;2.70;;;;;;;3.18;90.02;99016.09;6220633;23;20004;-61
2021/12/10 07:26:43;;;;;;;9.20;2.90;;;;;;;3.15;90.05;99014.41;6218658;23;20036;-62
2021/12/10 07:29:09;;;;;;;10.02;2.85;;;;;;;3.14;89.64;99010.97;6217306;23;20294;-62
2021/12/10 07:31:36;;;;;;;10.98;2.78;;;;;;;3.22;89.34;99010.03;6218278;23;20007;-61
2021/12/10 07:34:03;;;;;;;9.57;2.75;;;;;;;3.15;89.57;99015.25;6218708;23;20005;-62
2021/12/10 07:36:28;;;;;;;10.27;2.97;;;;;;;3.10;90.13;98998.13;6218097;23;20301;-62
2021/12/10 07:38:56;;;;;;;9.80;2.60;;;;;;;3.18;89.69;99013.53;6218634;23;20075;-63
2021/12/10 07:41:22;;;;;;;8.38;2.50;;;;;;;3.06;90.97;98991.28;6218897;23;20042;-62
2021/12/10 07:43:47;;;;;;;9.57;2.85;;;;;;;3.09;90.36;98992.09;6218694;23;20012;-62
2021/12/10 07:46:12;;;;;;;10.38;2.83;;;;;;;3.17;90.25;98998.88;6218203;23;20318;-62
2021/12/10 07:48:39;;;;;;;7.90;2.50;;;;;;;3.14;90.49;99010.97;6218531;23;20004;-62
2021/12/10 07:51:15;;;;;;;10.80;2.65;;;;;;;3.21;90.85;99013.47;6217910;23;20000;-62
2021/12/10 07:53:42;;;;;;;8.63;2.40;;;;;;;3.20;90.18;99009.19;6218142;23;20031;-62
2021/12/10 07:56:10;;;;;;;8.57;2.55;;;;;;;3.18;90.46;99000.59;6218581;23;20004;-62
2021/12/10 07:58:40;;;;;;;8.18;2.50;;;;;;;3.15;89.93;98998.91;6218453;23;20004;-62
2021/12/10 08:01:08;;;;;;;9.05;2.58;;;;;;;3.20;90.18;99012.63;6218143;23;20402;-61
2021/12/10 08:03:33;;;;;;;12.05;2.83;;;;;;;3.19;90.45;99008.34;6218101;23;20004;-61
2021/12/10 08:05:58;;;;;;;9.23;2.20;;;;;;;3.22;89.89;99015.19;6218385;23;20302;-61
2021/12/10 08:08:24;;;;;;;8.10;2.35;;;;;;;3.15;90.77;99011.81;6218296;23;20371;-63
2021/12/10 08:10:49;;;;;;;8.57;2.67;;;;;;;3.20;91.41;99019.53;6218838;23;20020;-61
2021/12/10 08:13:17;;;;;;;9.07;3.75;;;;;;;3.15;91.20;99017.84;6218452;23;20014;-61
2021/12/10 08:15:42;;;;;;;9.65;3.03;;;;;;;3.06;91.41;98997.31;6218288;23;20012;-61
2021/12/10 08:18:09;;;;;;;10.50;2.50;;;;;;;3.22;90.38;99016.06;6216864;23;20019;-62
2021/12/10 08:20:35;;;;;;;8.88;2.78;;;;;;;3.26;90.17;99016.88;6217723;23;20004;-62
2021/12/10 08:23:01;;;;;;;9.73;2.75;;;;;;;3.25;90.05;99017.75;6218007;23;20016;-62
2021/12/10 08:25:27;;;;;;;5.90;2.17;;;;;;;3.29;90.28;99015.06;6217677;23;20015;-61
2021/12/10 08:27:53;;;;;;;9.38;2.70;;;;;;;3.34;90.03;99028.81;6218020;23;20004;-62
2021/12/10 08:30:21;;;;;;;7.93;2.40;;;;;;;3.38;90.23;99019.28;6218071;23;20008;-62
2021/12/10 08:32:47;;;;;;;8.50;2.85;;;;;;;3.38;89.23;99008.94;6217574;23;20005;-62
2021/12/10 08:35:19;;;;;;;10.60;2.80;;;;;;;3.41;88.82;99019.25;6217882;23;20008;-62
2021/12/10 08:37:44;;;;;;;9.68;2.88;;;;;;;3.43;88.29;99018.34;6217298;23;20005;-62
2021/12/10 08:40:17;;;;;;;11.13;3.00;;;;;;;3.44;88.53;99024.38;6217237;23;20029;-62
2021/12/10 08:42:42;;;;;;;6.20;2.25;;;;;;;3.46;88.41;99017.47;6218325;23;20070;-62
2021/12/10 08:45:08;;;;;;;11.95;2.90;;;;;;;3.44;88.00;99020.06;6217561;23;20040;-62
2021/12/10 08:47:34;;;;;;;10.25;3.00;;;;;;;3.42;88.10;99016.63;6217889;23;20023;-62
2021/12/10 08:50:00;;;;;;;11.80;2.90;;;;;;;3.51;87.54;99028.56;6217907;23;20015;-62
2021/12/10 08:52:25;;;;;;;12.35;2.90;;;;;;;3.45;87.92;99016.59;6217726;23;20039;-62
2021/12/10 08:54:50;;;;;;;12.05;3.05;;;;;;;3.49;88.22;99028.59;6217837;23;20004;-62
2021/12/10 08:57:16;;;;;;;6.80;3.15;;;;;;;3.50;89.34;99019.09;6217819;23;20309;-63
2021/12/10 08:59:42;;;;;;;11.50;3.53;;;;;;;3.53;88.82;99025.97;6217151;23;20360;-63
2021/12/10 09:02:12;;;;;;;9.43;3.03;;;;;;;3.57;88.73;99023.31;6216865;23;20306;-62
2021/12/10 09:04:38;;;;;;;10.13;3.03;;;;;;;3.59;87.40;99028.47;6217353;23;20023;-62
2021/12/10 09:07:09;;;;;;;11.98;3.53;;;;;;;3.57;87.87;99014.69;6217224;23;20013;-62
2021/12/10 09:09:37;;;;;;;14.13;3.72;;;;;;;3.60;88.16;99017.25;6217687;23;20004;-62
2021/12/10 09:12:10;;;;;;;12.32;3.13;;;;;;;3.62;87.96;99021.53;6217499;23;20011;-62
2021/12/10 09:14:41;;;;;;;7.50;3.05;;;;;;;3.57;86.70;99004.34;6217500;23;20012;-62
2021/12/10 09:17:09;;;;;;;9.88;2.90;;;;;;;3.67;87.60;99018.84;6217544;23;20008;-62
2021/12/10 09:19:35;;;;;;;11.43;3.03;;;;;;;3.70;86.74;99032.59;6217787;23;20274;-61
2021/12/10 09:22:01;;;;;;;13.20;3.60;;;;;;;3.68;86.97;99031.75;6215754;23;20004;-61
2021/12/10 09:24:27;;;;;;;13.23;3.30;;;;;;;3.71;87.11;99023.97;6216703;23;20039;-62
2021/12/10 09:26:56;;;;;;;7.57;3.30;;;;;;;3.73;86.67;99023.94;6217039;23;20084;-62
2021/12/10 09:29:25;;;;;;;6.90;3.20;;;;;;;3.77;86.79;99044.56;6217469;23;20009;-62
2021/12/10 09:31:51;;;;;;;11.30;3.55;;;;;;;3.78;86.79;99041.13;6217314;23;20008;-61
2021/12/10 09:34:18;;;;;;;11.52;3.30;;;;;;;3.81;87.04;99032.44;6217853;23;20005;-62
2021/12/10 09:36:45;;;;;;;11.32;3.65;;;;;;;3.84;86.39;99035.81;6217075;23;20000;-62
2021/12/10 09:39:11;;;;;;;12.77;4.03;;;;;;;3.87;85.98;99036.66;6217277;23;20044;-62
2021/12/10 09:41:37;;;;;;;10.75;4.43;;;;;;;3.88;86.37;99041.81;6217259;23;20012;-61
2021/12/10 09:44:04;;;;;;;10.20;3.53;;;;;;;3.90;86.43;99037.47;6217204;23;20004;-62
2021/12/10 09:46:29;;;;;;;13.30;3.95;;;;;;;3.93;86.48;99037.44;6217438;23;20083;-62
2021/12/10 09:48:55;;;;;;;9.75;3.85;;;;;;;3.98;85.65;99037.38;6217020;23;20078;-62
2021/12/10 09:51:33;;;;;;;9.85;3.55;;;;;;;3.95;85.98;99037.41;6216819;23;20032;-61
2021/12/10 09:54:02;;;;;;;9.82;4.20;;;;;;;3.95;86.18;99037.41;6216919;23;20008;-62
2021/12/10 09:56:28;;;;;;;10.45;3.67;;;;;;;3.96;84.98;99037.38;6217352;23;20012;-61
2021/12/10 09:58:56;;;;;;;13.25;3.70;;;;;;;3.96;85.61;99042.56;6217083;23;20020;-62
2021/12/10 10:01:26;;;;;;;10.75;3.78;;;;;;;3.95;85.68;99033.09;6217551;23;20298;-62
2021/12/10 10:04:00;;;;;;;10.35;3.33;;;;;;;3.99;85.76;99033.88;6217372;23;20382;-62
2021/12/10 10:06:31;;;;;;;11.45;3.40;;;;;;;4.02;85.69;99039.00;6217208;23;20020;-62
2021/12/10 10:08:56;;;;;;;14.38;3.60;;;;;;;4.03;85.65;99035.53;6217220;23;20004;-62
2021/12/10 10:11:27;;;;;;;7.97;3.67;;;;;;;4.04;85.45;99043.28;6217041;23;20005;-63
2021/12/10 10:13:54;;;;;;;8.80;3.47;;;;;;;4.08;85.06;99046.69;6217071;23;20075;-62
2021/12/10 10:16:21;;;;;;;9.40;3.50;;;;;;;4.09;85.09;99043.22;6216887;23;20015;-61
2021/12/10 10:18:49;;;;;;;10.75;3.40;;;;;;;4.09;84.31;99038.91;6216780;23;20020;-62
2021/12/10 10:21:26;;;;;;;12.52;3.80;;;;;;;4.13;84.59;99044.88;6216654;23;20131;-62
2021/12/10 10:23:51;;;;;;;10.93;3.10;;;;;;;4.15;84.29;99045.72;6216452;23;20080;-62
2021/12/10 10:26:21;;;;;;;8.43;3.28;;;;;;;4.14;84.14;99046.59;6216807;23;20036;-62
2021/12/10 10:28:47;;;;;;;8.90;3.60;;;;;;;4.14;84.15;99044.00;6216771;23;20425;-61
2021/12/10 10:31:18;;;;;;;8.25;3.38;;;;;;;4.18;84.01;99051.66;6217140;23;20000;-62
2021/12/10 10:33:47;;;;;;;8.23;3.42;;;;;;;4.16;84.02;99043.06;6216923;23;20004;-62
2021/12/10 10:36:19;;;;;;;8.35;3.30;;;;;;;4.25;84.40;99042.09;6217191;23;20019;-63
2021/12/10 10:38:55;;;;;;;8.13;3.22;;;;;;;4.27;83.96;99044.66;6217133;23;20004;-62
2021/12/10 10:41:24;;;;;;;11.05;2.95;;;;;;;4.30;83.86;99048.03;6217216;23;20082;-62
2021/12/10 10:43:50;;;;;;;7.45;2.95;;;;;;;4.32;82.84;99042.84;6216654;23;20460;-62
2021/12/10 10:46:15;;;;;;;8.55;3.10;;;;;;;4.30;83.83;99048.03;6216578;23;20119;-62
2021/12/10 10:48:44;;;;;;;9.82;3.30;;;;;;;4.31;84.09;99036.81;6216561;23;20015;-62
2021/12/10 10:51:16;;;;;;;8.68;3.45;;;;;;;4.38;84.13;99051.34;6216086;23;20009;-62
2021/12/10 10:53:45;;;;;;;6.55;3.30;;;;;;;4.35;83.92;99035.84;6216959;23;20005;-62
2021/12/10 10:56:30;;;;;;;7.90;3.05;;;;;;;4.48;84.17;99045.13;6217025;23;20022;-62
2021/12/10 10:59:01;;;;;;;8.00;3.05;;;;;;;4.43;83.11;99046.09;6216827;23;20019;-62
2021/12/10 11:01:40;;;;;;;7.53;3.13;;;;;;;4.39;83.82;99052.19;6217331;23;20088;-62
2021/12/10 11:04:18;;;;;;;9.80;3.60;;;;;;;4.38;84.61;99061.69;6218578;23;20005;-62
2021/12/10 11:06:49;;;;;;;11.45;2.90;;;;;;;4.38;84.08;99053.94;6218892;23;20070;-62
2021/12/10 11:09:20;;;;;;;7.70;2.85;;;;;;;4.26;82.70;99035.16;6218966;23;20093;-62
2021/12/10 11:11:57;;;;;;;9.55;3.00;;;;;;;4.32;83.27;99067.00;6218845;23;20008;-60
2021/12/10 11:14:28;;;;;;;9.32;3.42;;;;;;;4.27;83.84;99057.59;6219020;23;20008;-61
2021/12/10 11:17:07;;;;;;;9.27;3.30;;;;;;;4.31;83.95;99064.44;6219043;23;20008;-59
2021/12/10 11:19:33;;;;;;;6.57;3.28;;;;;;;4.31;83.82;99073.06;6218647;23;20005;-62
2021/12/10 11:22:08;;;;;;;8.38;3.65;;;;;;;4.31;83.54;99073.06;6218822;23;20018;-61
2021/12/10 11:24:38;;;;;;;10.43;3.30;;;;;;;4.34;84.07;99074.72;6218862;23;20000;-61
2021/12/10 11:27:12;;;;;;;8.77;2.97;;;;;;;4.32;83.58;99063.56;6218732;23;20071;-61
2021/12/10 11:29:55;;;;;;;10.93;3.75;;;;;;;4.33;84.41;99068.69;6218974;23;20095;-62
2021/12/10 11:32:23;;;;;;;13.80;3.40;;;;;;;4.35;84.11;99069.50;6218501;23;20059;-62
2021/12/10 11:34:51;;;;;;;7.97;3.10;;;;;;;4.33;83.94;99073.84;6218747;23;20012;-62
2021/12/10 11:37:38;;;;;;;8.95;2.90;;;;;;;4.32;84.17;99076.50;6218390;23;19997;-62
2021/12/10 11:40:09;;;;;;;9.32;3.00;;;;;;;4.28;84.50;99065.34;6218836;23;20016;-62
2021/12/10 11:42:48;;;;;;;8.27;3.38;;;;;;;4.34;84.60;99072.13;6217852;23;20088;-63
2021/12/10 11:45:52;;;;;;;9.85;3.80;;;;;;;4.32;85.54;99085.13;6218676;23;20016;-62
2021/12/10 11:48:26;;;;;;;12.32;3.35;;;;;;;4.24;86.19;99070.59;6218857;23;20012;-66
2021/12/10 11:51:05;;;;;;;9.57;3.70;;;;;;;4.12;86.14;99063.88;6218200;23;20036;-63
2021/12/10 11:53:46;;;;;;;11.85;3.25;;;;;;;4.22;86.65;99086.13;6218393;23;20026;-64
2021/12/10 11:56:17;;;;;;;9.35;3.17;;;;;;;4.25;87.31;99083.50;6218308;23;20024;-64